DLH323 EDDF-LICJ
Flight info
| Callsign | DLH323 |
|---|---|
| Flight time | N/A |
| Altitude | 37000 |
| Route | ANEKI2L/18 ANEKI Y163 NATOR DCT TRA DCT RIPUS DCT GERSA DCT SOSON DCT ODINA DCT RONAB DCT GIANO |
| Aircraft | A320/M-SDE2E3FGIJ1LORWXYZ/HB1 |
Departure
| Time | 2026-05-06 10:26 |
|---|---|
| Airport | Frankfurt Main Airport (EDDF) |
Arrival
| Time | N/A |
|---|---|
| Airport | Falcone–Borsellino Airport (LICJ) |
| Time | Latitude | Longitude | Altitude | Speed | Heading |
|---|---|---|---|---|---|
| 2026-05-06 09:57 | 50.03586 | 8.53659 | 336 ft | 0 kts | 160° |
| 2026-05-06 10:20 | 50.03581 | 8.53661 | 340 ft | 0 kts | 160° |
| 2026-05-06 10:20 | 50.03579 | 8.53663 | 340 ft | 3 kts | 160° |
| 2026-05-06 10:20 | 50.03533 | 8.53689 | 340 ft | 8 kts | 162° |
| 2026-05-06 10:21 | 50.03494 | 8.53631 | 339 ft | 10 kts | 251° |
| 2026-05-06 10:21 | 50.03469 | 8.53522 | 336 ft | 12 kts | 249° |
| 2026-05-06 10:21 | 50.03436 | 8.53388 | 338 ft | 14 kts | 249° |
| 2026-05-06 10:21 | 50.03397 | 8.53228 | 333 ft | 18 kts | 249° |
| 2026-05-06 10:22 | 50.03352 | 8.53040 | 335 ft | 19 kts | 251° |
| 2026-05-06 10:22 | 50.03304 | 8.52838 | 331 ft | 16 kts | 249° |
| 2026-05-06 10:22 | 50.03295 | 8.52802 | 333 ft | 6 kts | 249° |
| 2026-05-06 10:22 | 50.03286 | 8.52766 | 332 ft | 0 kts | 249° |
| 2026-05-06 10:23 | 50.03282 | 8.52749 | 331 ft | 6 kts | 249° |
| 2026-05-06 10:24 | 50.03251 | 8.52654 | 331 ft | 13 kts | 229° |
| 2026-05-06 10:24 | 50.03137 | 8.52608 | 335 ft | 21 kts | 189° |
| 2026-05-06 10:24 | 50.03038 | 8.52598 | 331 ft | 0 kts | 179° |
| 2026-05-06 10:25 | 50.03024 | 8.52599 | 333 ft | 19 kts | 179° |
| 2026-05-06 10:25 | 50.02619 | 8.52601 | 334 ft | 93 kts | 179° |
| 2026-05-06 10:25 | 50.01773 | 8.52605 | 337 ft | 148 kts | 180° |
| 2026-05-06 10:26 | 50.00704 | 8.52625 | 885 ft | 154 kts | 180° |
| 2026-05-06 10:26 | 49.99622 | 8.52698 | 1598 ft | 160 kts | 180° |
| 2026-05-06 10:26 | 49.98439 | 8.52773 | 2025 ft | 181 kts | 180° |
| 2026-05-06 10:26 | 49.97111 | 8.52859 | 2442 ft | 199 kts | 180° |
| 2026-05-06 10:27 | 49.95651 | 8.52953 | 2927 ft | 219 kts | 180° |
| 2026-05-06 10:27 | 49.94102 | 8.53056 | 3570 ft | 226 kts | 180° |
| 2026-05-06 10:27 | 49.92532 | 8.53164 | 3787 ft | 225 kts | 180° |
| 2026-05-06 10:27 | 49.90952 | 8.53278 | 4530 ft | 227 kts | 180° |
| 2026-05-06 10:28 | 49.89368 | 8.53388 | 5441 ft | 229 kts | 180° |
| 2026-05-06 10:28 | 49.87762 | 8.53498 | 6304 ft | 233 kts | 180° |
| 2026-05-06 10:28 | 49.86135 | 8.53609 | 7152 ft | 236 kts | 180° |
| 2026-05-06 10:28 | 49.84488 | 8.53721 | 8019 ft | 238 kts | 180° |
| 2026-05-06 10:29 | 49.82824 | 8.53834 | 8904 ft | 241 kts | 180° |
| 2026-05-06 10:29 | 49.81137 | 8.53944 | 9784 ft | 244 kts | 180° |
| 2026-05-06 10:29 | 49.79431 | 8.54054 | 10595 ft | 246 kts | 180° |
| 2026-05-06 10:29 | 49.77714 | 8.54094 | 11377 ft | 251 kts | 186° |
| 2026-05-06 10:30 | 49.75893 | 8.53872 | 11703 ft | 274 kts | 187° |
| 2026-05-06 10:30 | 49.73913 | 8.53604 | 11987 ft | 298 kts | 187° |
| 2026-05-06 10:30 | 49.71774 | 8.53307 | 12344 ft | 317 kts | 187° |
| 2026-05-06 10:30 | 49.69550 | 8.53006 | 13064 ft | 324 kts | 187° |
| 2026-05-06 10:31 | 49.67290 | 8.52704 | 13821 ft | 328 kts | 186° |
| 2026-05-06 10:31 | 49.65001 | 8.52397 | 14512 ft | 331 kts | 186° |
| 2026-05-06 10:31 | 49.62695 | 8.52092 | 15217 ft | 334 kts | 186° |
| 2026-05-06 10:31 | 49.60366 | 8.51788 | 15901 ft | 338 kts | 186° |
| 2026-05-06 10:32 | 49.58013 | 8.51481 | 16580 ft | 342 kts | 186° |
| 2026-05-06 10:32 | 49.55634 | 8.51168 | 17247 ft | 345 kts | 186° |
| 2026-05-06 10:32 | 49.53227 | 8.50852 | 17914 ft | 349 kts | 186° |
| 2026-05-06 10:32 | 49.50796 | 8.50532 | 18510 ft | 353 kts | 186° |
| 2026-05-06 10:33 | 49.48338 | 8.50207 | 19100 ft | 356 kts | 186° |
| 2026-05-06 10:33 | 49.45859 | 8.49880 | 19694 ft | 358 kts | 186° |
| 2026-05-06 10:33 | 49.43367 | 8.49556 | 20283 ft | 361 kts | 186° |
| 2026-05-06 10:33 | 49.40859 | 8.49234 | 20889 ft | 363 kts | 186° |
| 2026-05-06 10:34 | 49.38337 | 8.48913 | 21467 ft | 365 kts | 186° |
| 2026-05-06 10:34 | 49.35792 | 8.48585 | 22028 ft | 368 kts | 186° |
| 2026-05-06 10:34 | 49.33237 | 8.48249 | 22572 ft | 370 kts | 186° |
| 2026-05-06 10:34 | 49.30661 | 8.47908 | 23117 ft | 373 kts | 187° |
| 2026-05-06 10:35 | 49.28941 | 8.47682 | 23455 ft | 375 kts | 187° |
| 2026-05-06 10:35 | 49.26340 | 8.47341 | 23917 ft | 377 kts | 186° |
| 2026-05-06 10:35 | 49.23721 | 8.47000 | 24394 ft | 378 kts | 186° |
| 2026-05-06 10:35 | 49.21099 | 8.46660 | 24862 ft | 379 kts | 186° |
| 2026-05-06 10:36 | 49.18474 | 8.46317 | 25385 ft | 378 kts | 186° |
| 2026-05-06 10:36 | 49.15853 | 8.45975 | 25862 ft | 379 kts | 185° |
| 2026-05-06 10:36 | 49.13216 | 8.45633 | 26310 ft | 381 kts | 185° |
| 2026-05-06 10:36 | 49.10571 | 8.45292 | 26771 ft | 383 kts | 185° |
| 2026-05-06 10:37 | 49.07911 | 8.44949 | 27255 ft | 384 kts | 185° |
| 2026-05-06 10:37 | 49.05260 | 8.44371 | 27713 ft | 386 kts | 193° |
| 2026-05-06 10:37 | 49.02638 | 8.43449 | 28166 ft | 388 kts | 193° |
| 2026-05-06 10:37 | 49.00000 | 8.42528 | 28587 ft | 390 kts | 193° |
| 2026-05-06 10:38 | 48.97343 | 8.41602 | 28941 ft | 393 kts | 192° |
| 2026-05-06 10:38 | 48.94672 | 8.40673 | 29302 ft | 396 kts | 192° |
| 2026-05-06 10:38 | 48.91973 | 8.39738 | 29685 ft | 398 kts | 192° |
| 2026-05-06 10:38 | 48.89269 | 8.38802 | 30023 ft | 400 kts | 193° |
| 2026-05-06 10:39 | 48.86553 | 8.37861 | 30334 ft | 402 kts | 193° |
| 2026-05-06 10:39 | 48.83818 | 8.36912 | 30636 ft | 404 kts | 193° |
| 2026-05-06 10:39 | 48.81110 | 8.35971 | 30938 ft | 406 kts | 193° |
| 2026-05-06 10:39 | 48.78317 | 8.35002 | 31271 ft | 408 kts | 193° |
| 2026-05-06 10:40 | 48.75555 | 8.34021 | 31711 ft | 407 kts | 194° |
| 2026-05-06 10:40 | 48.72849 | 8.33035 | 32142 ft | 404 kts | 194° |
| 2026-05-06 10:40 | 48.70118 | 8.32030 | 32584 ft | 402 kts | 194° |
| 2026-05-06 10:40 | 48.67407 | 8.31030 | 33019 ft | 400 kts | 195° |
| 2026-05-06 10:41 | 48.64706 | 8.30038 | 33466 ft | 398 kts | 195° |
| 2026-05-06 10:41 | 48.62018 | 8.29055 | 33895 ft | 397 kts | 195° |
| 2026-05-06 10:41 | 48.59334 | 8.28077 | 34228 ft | 396 kts | 195° |
| 2026-05-06 10:41 | 48.56653 | 8.27102 | 34521 ft | 397 kts | 195° |
| 2026-05-06 10:42 | 48.53965 | 8.26128 | 34794 ft | 397 kts | 195° |
| 2026-05-06 10:42 | 48.51272 | 8.25190 | 35031 ft | 399 kts | 192° |
| 2026-05-06 10:42 | 48.48497 | 8.24800 | 35251 ft | 403 kts | 182° |
| 2026-05-06 10:42 | 48.45687 | 8.25166 | 35478 ft | 408 kts | 174° |
| 2026-05-06 10:43 | 48.42884 | 8.25865 | 35709 ft | 409 kts | 174° |
| 2026-05-06 10:43 | 48.40069 | 8.26560 | 35958 ft | 410 kts | 174° |
| 2026-05-06 10:43 | 48.37256 | 8.27246 | 36170 ft | 411 kts | 174° |
| 2026-05-06 10:44 | 48.31612 | 8.28609 | 36713 ft | 409 kts | 174° |
| 2026-05-06 10:44 | 48.26019 | 8.29958 | 36821 ft | 405 kts | 174° |
| 2026-05-06 10:45 | 48.20460 | 8.31292 | 36824 ft | 404 kts | 175° |
| 2026-05-06 10:45 | 48.14902 | 8.32622 | 36825 ft | 404 kts | 174° |
| 2026-05-06 10:46 | 48.09357 | 8.33966 | 36828 ft | 403 kts | 174° |
| 2026-05-06 10:46 | 48.03825 | 8.35323 | 36828 ft | 403 kts | 174° |
| 2026-05-06 10:47 | 47.98292 | 8.36668 | 36831 ft | 403 kts | 174° |
| 2026-05-06 10:47 | 47.92768 | 8.37992 | 36832 ft | 403 kts | 174° |
| 2026-05-06 10:48 | 47.87238 | 8.39320 | 36834 ft | 403 kts | 174° |
| 2026-05-06 10:48 | 47.81706 | 8.40646 | 36838 ft | 402 kts | 174° |
| 2026-05-06 10:49 | 47.76213 | 8.41956 | 36842 ft | 403 kts | 174° |
| 2026-05-06 10:49 | 47.70687 | 8.43278 | 36814 ft | 402 kts | 174° |
| 2026-05-06 10:50 | 47.65140 | 8.44421 | 36824 ft | 402 kts | 178° |
| 2026-05-06 10:50 | 47.59579 | 8.45190 | 36834 ft | 402 kts | 179° |
| 2026-05-06 10:51 | 47.54003 | 8.45908 | 36844 ft | 402 kts | 178° |
| 2026-05-06 10:51 | 47.48439 | 8.46698 | 36829 ft | 402 kts | 178° |
| 2026-05-06 10:52 | 47.42884 | 8.47530 | 36827 ft | 401 kts | 178° |
| 2026-05-06 10:52 | 47.37331 | 8.48355 | 36825 ft | 401 kts | 178° |
| 2026-05-06 10:53 | 47.31771 | 8.49174 | 36841 ft | 403 kts | 178° |
| 2026-05-06 10:53 | 47.26188 | 8.49982 | 36841 ft | 403 kts | 178° |
| 2026-05-06 10:54 | 47.20604 | 8.50795 | 36832 ft | 403 kts | 178° |
| 2026-05-06 10:54 | 47.15036 | 8.51614 | 36829 ft | 402 kts | 178° |
| 2026-05-06 10:55 | 47.09462 | 8.52419 | 36837 ft | 403 kts | 178° |
| 2026-05-06 10:55 | 47.03911 | 8.53205 | 36829 ft | 404 kts | 178° |
| 2026-05-06 10:56 | 46.98300 | 8.54016 | 36829 ft | 405 kts | 178° |
| 2026-05-06 10:56 | 46.92695 | 8.54832 | 36823 ft | 404 kts | 178° |
| 2026-05-06 10:57 | 46.87085 | 8.55640 | 36839 ft | 405 kts | 178° |
| 2026-05-06 10:57 | 46.81481 | 8.56451 | 36853 ft | 405 kts | 179° |
| 2026-05-06 10:58 | 46.75878 | 8.57247 | 36831 ft | 405 kts | 179° |
| 2026-05-06 10:58 | 46.70270 | 8.58038 | 36830 ft | 403 kts | 179° |
| 2026-05-06 10:59 | 46.64679 | 8.58841 | 36856 ft | 404 kts | 179° |
| 2026-05-06 10:59 | 46.59103 | 8.59641 | 36869 ft | 402 kts | 179° |
| 2026-05-06 11:00 | 46.53535 | 8.60445 | 36879 ft | 401 kts | 179° |
| 2026-05-06 11:00 | 46.47992 | 8.61221 | 36873 ft | 400 kts | 179° |
| 2026-05-06 11:01 | 46.42442 | 8.61997 | 36881 ft | 401 kts | 179° |
| 2026-05-06 11:01 | 46.36899 | 8.62778 | 36881 ft | 400 kts | 179° |
| 2026-05-06 11:02 | 46.31356 | 8.63556 | 36883 ft | 400 kts | 180° |
| 2026-05-06 11:02 | 46.25827 | 8.64330 | 36876 ft | 400 kts | 179° |
| 2026-05-06 11:03 | 46.20304 | 8.65107 | 36858 ft | 398 kts | 179° |
| 2026-05-06 11:03 | 46.14780 | 8.65883 | 36877 ft | 399 kts | 179° |
| 2026-05-06 11:04 | 46.09290 | 8.67188 | 36879 ft | 407 kts | 167° |
| 2026-05-06 11:04 | 46.03994 | 8.70194 | 36876 ft | 409 kts | 164° |
| 2026-05-06 11:05 | 45.98725 | 8.73244 | 36842 ft | 408 kts | 165° |
| 2026-05-06 11:05 | 45.93461 | 8.76285 | 36850 ft | 407 kts | 165° |
| 2026-05-06 11:06 | 45.88193 | 8.79309 | 36862 ft | 408 kts | 165° |
| 2026-05-06 11:06 | 45.82924 | 8.82316 | 36867 ft | 408 kts | 165° |
| 2026-05-06 11:07 | 45.77663 | 8.85325 | 36859 ft | 407 kts | 165° |
| 2026-05-06 11:07 | 45.72397 | 8.88322 | 36866 ft | 407 kts | 165° |
| 2026-05-06 11:08 | 45.67179 | 8.91285 | 36867 ft | 406 kts | 165° |
| 2026-05-06 11:08 | 45.61937 | 8.94275 | 36856 ft | 406 kts | 165° |
| 2026-05-06 11:09 | 45.56693 | 8.97257 | 36858 ft | 406 kts | 165° |
| 2026-05-06 11:09 | 45.51447 | 9.00218 | 36835 ft | 405 kts | 165° |
| 2026-05-06 11:10 | 45.46217 | 9.03176 | 36855 ft | 404 kts | 165° |
| 2026-05-06 11:10 | 45.40953 | 9.06146 | 36848 ft | 404 kts | 166° |
| 2026-05-06 11:11 | 45.35772 | 9.09058 | 36852 ft | 403 kts | 166° |
| 2026-05-06 11:11 | 45.30554 | 9.11982 | 36856 ft | 403 kts | 166° |
| 2026-05-06 11:12 | 45.25337 | 9.14898 | 36839 ft | 403 kts | 166° |
| 2026-05-06 11:12 | 45.20115 | 9.17821 | 36831 ft | 403 kts | 166° |
| 2026-05-06 11:13 | 45.14903 | 9.20730 | 36832 ft | 402 kts | 166° |
| 2026-05-06 11:13 | 45.09695 | 9.23631 | 36831 ft | 402 kts | 166° |
| 2026-05-06 11:14 | 45.04483 | 9.26530 | 36811 ft | 402 kts | 166° |
| 2026-05-06 11:14 | 44.99278 | 9.29410 | 36806 ft | 401 kts | 166° |
| 2026-05-06 11:15 | 44.94075 | 9.32289 | 36820 ft | 401 kts | 166° |
| 2026-05-06 11:15 | 44.88878 | 9.35163 | 36834 ft | 401 kts | 166° |
| 2026-05-06 11:16 | 44.83674 | 9.38029 | 36853 ft | 402 kts | 166° |
| 2026-05-06 11:16 | 44.78466 | 9.40889 | 36832 ft | 402 kts | 166° |
| 2026-05-06 11:17 | 44.73257 | 9.43760 | 36845 ft | 402 kts | 166° |
| 2026-05-06 11:17 | 44.68041 | 9.46628 | 36863 ft | 402 kts | 166° |
| 2026-05-06 11:18 | 44.62828 | 9.49485 | 36848 ft | 402 kts | 166° |
| 2026-05-06 11:18 | 44.57605 | 9.52330 | 36845 ft | 403 kts | 166° |
| 2026-05-06 11:19 | 44.52375 | 9.55180 | 36856 ft | 404 kts | 166° |
| 2026-05-06 11:19 | 44.47124 | 9.58033 | 36861 ft | 405 kts | 166° |
| 2026-05-06 11:20 | 44.41855 | 9.60886 | 36877 ft | 406 kts | 166° |
| 2026-05-06 11:20 | 44.36583 | 9.63745 | 36881 ft | 407 kts | 166° |
| 2026-05-06 11:21 | 44.31301 | 9.66611 | 36893 ft | 407 kts | 166° |
| 2026-05-06 11:21 | 44.26019 | 9.69468 | 36906 ft | 406 kts | 166° |
| 2026-05-06 11:22 | 44.20747 | 9.72300 | 36904 ft | 406 kts | 166° |
| 2026-05-06 11:22 | 44.15465 | 9.75130 | 36908 ft | 407 kts | 166° |
| 2026-05-06 11:23 | 44.11069 | 9.77490 | 36913 ft | 407 kts | 166° |
| 2026-05-06 11:23 | 44.05794 | 9.80321 | 36912 ft | 406 kts | 166° |
| 2026-05-06 11:24 | 43.99665 | 9.83597 | 36865 ft | 406 kts | 166° |
| 2026-05-06 11:24 | 43.95226 | 9.85974 | 36906 ft | 409 kts | 166° |
| 2026-05-06 11:25 | 43.89912 | 9.88810 | 36916 ft | 409 kts | 166° |
| 2026-05-06 11:25 | 43.84596 | 9.91629 | 36922 ft | 409 kts | 166° |
| 2026-05-06 11:26 | 43.79284 | 9.94448 | 36925 ft | 409 kts | 166° |
| 2026-05-06 11:26 | 43.73971 | 9.97265 | 36917 ft | 409 kts | 166° |
| 2026-05-06 11:27 | 43.68648 | 10.00080 | 36924 ft | 410 kts | 166° |
| 2026-05-06 11:27 | 43.63323 | 10.02892 | 36932 ft | 410 kts | 166° |
| 2026-05-06 11:28 | 43.57992 | 10.05698 | 36908 ft | 410 kts | 166° |
| 2026-05-06 11:28 | 43.52666 | 10.08506 | 36915 ft | 410 kts | 166° |
| 2026-05-06 11:29 | 43.47337 | 10.11302 | 36926 ft | 410 kts | 166° |
| 2026-05-06 11:29 | 43.42001 | 10.14091 | 36924 ft | 410 kts | 166° |
| 2026-05-06 11:30 | 43.36677 | 10.16871 | 36916 ft | 409 kts | 166° |
| 2026-05-06 11:30 | 43.31354 | 10.19652 | 36916 ft | 410 kts | 166° |
| 2026-05-06 11:31 | 43.26022 | 10.22433 | 36908 ft | 410 kts | 165° |
| 2026-05-06 11:31 | 43.20713 | 10.25184 | 36910 ft | 410 kts | 165° |
| 2026-05-06 11:32 | 43.15368 | 10.27958 | 36907 ft | 411 kts | 165° |
| 2026-05-06 11:32 | 43.09986 | 10.30749 | 36917 ft | 411 kts | 165° |
| 2026-05-06 11:33 | 43.04657 | 10.33503 | 36924 ft | 412 kts | 165° |
| 2026-05-06 11:33 | 42.99290 | 10.36264 | 36928 ft | 412 kts | 165° |
| 2026-05-06 11:34 | 42.93924 | 10.39031 | 36925 ft | 413 kts | 165° |
| 2026-05-06 11:34 | 42.88560 | 10.41793 | 36929 ft | 413 kts | 165° |
| 2026-05-06 11:35 | 42.83180 | 10.44553 | 36937 ft | 412 kts | 166° |
| 2026-05-06 11:35 | 42.77810 | 10.47296 | 36938 ft | 412 kts | 166° |
| 2026-05-06 11:36 | 42.72436 | 10.50042 | 36923 ft | 412 kts | 166° |
| 2026-05-06 11:36 | 42.67066 | 10.52787 | 36931 ft | 412 kts | 166° |
| 2026-05-06 11:37 | 42.61694 | 10.55529 | 36935 ft | 412 kts | 166° |
| 2026-05-06 11:37 | 42.56325 | 10.58258 | 36912 ft | 412 kts | 166° |
| 2026-05-06 11:38 | 42.50962 | 10.60981 | 36916 ft | 411 kts | 166° |
| 2026-05-06 11:38 | 42.45602 | 10.63685 | 36929 ft | 411 kts | 166° |
| 2026-05-06 11:39 | 42.40238 | 10.66396 | 36937 ft | 411 kts | 166° |
| 2026-05-06 11:39 | 42.34884 | 10.69110 | 36945 ft | 411 kts | 166° |
| 2026-05-06 11:40 | 42.29526 | 10.71812 | 36948 ft | 411 kts | 166° |
| 2026-05-06 11:40 | 42.24163 | 10.74500 | 36960 ft | 411 kts | 166° |
| 2026-05-06 11:41 | 42.18796 | 10.77188 | 36963 ft | 411 kts | 166° |
| 2026-05-06 11:41 | 42.13430 | 10.79886 | 36967 ft | 412 kts | 166° |
| 2026-05-06 11:42 | 42.08057 | 10.82571 | 36963 ft | 412 kts | 166° |
| 2026-05-06 11:42 | 42.02695 | 10.85245 | 36970 ft | 411 kts | 166° |
| 2026-05-06 11:43 | 41.97331 | 10.87919 | 36981 ft | 411 kts | 166° |
| 2026-05-06 11:43 | 41.91971 | 10.90585 | 36985 ft | 410 kts | 166° |
| 2026-05-06 11:44 | 41.83981 | 10.94552 | 36970 ft | 410 kts | 166° |
| 2026-05-06 11:44 | 41.78630 | 10.97192 | 36969 ft | 410 kts | 166° |
| 2026-05-06 11:45 | 41.73277 | 10.99833 | 36981 ft | 410 kts | 166° |
| 2026-05-06 11:45 | 41.67918 | 11.02482 | 36985 ft | 410 kts | 166° |
| 2026-05-06 11:46 | 41.62557 | 11.05121 | 36968 ft | 410 kts | 166° |
| 2026-05-06 11:46 | 41.57199 | 11.07749 | 36968 ft | 411 kts | 166° |
| 2026-05-06 11:47 | 41.51827 | 11.10384 | 36976 ft | 411 kts | 166° |
| 2026-05-06 11:47 | 41.46457 | 11.13019 | 36980 ft | 411 kts | 166° |
| 2026-05-06 11:48 | 41.41088 | 11.15648 | 36961 ft | 411 kts | 166° |
| 2026-05-06 11:48 | 41.35709 | 11.18279 | 36967 ft | 412 kts | 166° |
| 2026-05-06 11:49 | 41.30326 | 11.20899 | 36970 ft | 412 kts | 166° |
| 2026-05-06 11:49 | 41.24946 | 11.23517 | 36972 ft | 412 kts | 166° |
| 2026-05-06 11:50 | 41.19559 | 11.26131 | 36956 ft | 412 kts | 166° |
| 2026-05-06 11:50 | 41.14198 | 11.28721 | 36961 ft | 413 kts | 166° |
| 2026-05-06 11:51 | 41.08759 | 11.31358 | 36946 ft | 414 kts | 166° |
| 2026-05-06 11:51 | 41.03379 | 11.33960 | 36960 ft | 415 kts | 166° |
| 2026-05-06 11:52 | 40.97961 | 11.36581 | 36951 ft | 415 kts | 166° |
| 2026-05-06 11:52 | 40.92527 | 11.39191 | 36962 ft | 416 kts | 167° |
| 2026-05-06 11:53 | 40.87082 | 11.41792 | 36967 ft | 416 kts | 166° |
| 2026-05-06 11:53 | 40.81635 | 11.44410 | 36977 ft | 417 kts | 166° |
| 2026-05-06 11:54 | 40.76182 | 11.47033 | 36970 ft | 417 kts | 167° |
| 2026-05-06 11:54 | 40.70726 | 11.49646 | 36975 ft | 418 kts | 167° |
| 2026-05-06 11:55 | 40.65257 | 11.52258 | 36979 ft | 418 kts | 167° |
| 2026-05-06 11:55 | 40.59777 | 11.54858 | 36985 ft | 418 kts | 167° |
| 2026-05-06 11:56 | 40.54297 | 11.57460 | 36966 ft | 419 kts | 168° |
| 2026-05-06 11:56 | 40.48821 | 11.60069 | 36978 ft | 419 kts | 168° |
| 2026-05-06 11:57 | 40.43338 | 11.62661 | 36982 ft | 419 kts | 168° |
| 2026-05-06 11:57 | 40.37852 | 11.65255 | 36995 ft | 419 kts | 168° |
| 2026-05-06 11:58 | 40.32374 | 11.67843 | 36976 ft | 419 kts | 168° |
| 2026-05-06 11:58 | 40.26918 | 11.70415 | 36967 ft | 420 kts | 169° |
| 2026-05-06 11:59 | 40.21418 | 11.73002 | 36977 ft | 421 kts | 169° |
| 2026-05-06 11:59 | 40.15941 | 11.75584 | 37006 ft | 410 kts | 169° |
| 2026-05-06 12:00 | 40.13306 | 11.76839 | 37011 ft | 395 kts | 169° |
| 2026-05-06 12:00 | 40.10753 | 11.78050 | 37013 ft | 387 kts | 169° |
| 2026-05-06 12:00 | 40.05704 | 11.80404 | 37014 ft | 384 kts | 170° |
| 2026-05-06 12:01 | 40.00669 | 11.82727 | 37011 ft | 384 kts | 170° |
| 2026-05-06 12:01 | 39.95636 | 11.85067 | 37010 ft | 384 kts | 169° |
| 2026-05-06 12:02 | 39.90607 | 11.87407 | 37013 ft | 384 kts | 170° |
| 2026-05-06 12:02 | 39.85577 | 11.89795 | 36996 ft | 386 kts | 168° |
| 2026-05-06 12:03 | 39.83096 | 11.91120 | 36679 ft | 385 kts | 166° |
| 2026-05-06 12:03 | 39.80652 | 11.92520 | 36279 ft | 382 kts | 165° |
| 2026-05-06 12:03 | 39.78242 | 11.93939 | 35916 ft | 378 kts | 165° |
| 2026-05-06 12:03 | 39.75859 | 11.95345 | 35547 ft | 374 kts | 166° |
| 2026-05-06 12:04 | 39.73498 | 11.96714 | 35179 ft | 369 kts | 166° |
| 2026-05-06 12:04 | 39.71158 | 11.98050 | 34837 ft | 365 kts | 167° |
| 2026-05-06 12:04 | 39.68843 | 11.99354 | 34481 ft | 361 kts | 167° |
| 2026-05-06 12:04 | 39.66550 | 12.00638 | 34131 ft | 357 kts | 167° |
| 2026-05-06 12:05 | 39.64287 | 12.01905 | 33771 ft | 353 kts | 167° |
| 2026-05-06 12:05 | 39.62023 | 12.03167 | 33228 ft | 353 kts | 166° |
| 2026-05-06 12:05 | 39.59766 | 12.04424 | 32686 ft | 353 kts | 166° |
| 2026-05-06 12:05 | 39.57502 | 12.05687 | 32208 ft | 354 kts | 165° |
| 2026-05-06 12:06 | 39.55270 | 12.06933 | 31734 ft | 354 kts | 165° |
| 2026-05-06 12:06 | 39.52976 | 12.08213 | 31240 ft | 355 kts | 165° |
| 2026-05-06 12:06 | 39.50711 | 12.09479 | 30779 ft | 355 kts | 165° |
| 2026-05-06 12:06 | 39.48448 | 12.10747 | 30317 ft | 355 kts | 165° |
| 2026-05-06 12:07 | 39.46183 | 12.12013 | 29823 ft | 354 kts | 165° |
| 2026-05-06 12:07 | 39.43922 | 12.13273 | 29296 ft | 354 kts | 165° |
| 2026-05-06 12:07 | 39.41657 | 12.14529 | 28777 ft | 354 kts | 165° |
| 2026-05-06 12:07 | 39.39427 | 12.15766 | 28275 ft | 353 kts | 164° |
| 2026-05-06 12:08 | 39.37144 | 12.17035 | 27745 ft | 353 kts | 164° |
| 2026-05-06 12:08 | 39.34917 | 12.18272 | 27260 ft | 352 kts | 164° |
| 2026-05-06 12:08 | 39.32637 | 12.19537 | 26772 ft | 352 kts | 164° |
| 2026-05-06 12:08 | 39.30390 | 12.20784 | 26299 ft | 351 kts | 164° |
| 2026-05-06 12:09 | 39.28180 | 12.22008 | 25839 ft | 350 kts | 164° |
| 2026-05-06 12:09 | 39.25947 | 12.23244 | 25380 ft | 349 kts | 164° |
| 2026-05-06 12:09 | 39.23717 | 12.24480 | 24930 ft | 348 kts | 164° |
| 2026-05-06 12:09 | 39.21496 | 12.25712 | 24483 ft | 347 kts | 164° |
| 2026-05-06 12:10 | 39.19285 | 12.26939 | 24050 ft | 346 kts | 164° |
| 2026-05-06 12:10 | 39.17074 | 12.28166 | 23612 ft | 345 kts | 164° |
| 2026-05-06 12:10 | 39.14876 | 12.29383 | 23094 ft | 344 kts | 163° |
| 2026-05-06 12:10 | 39.12679 | 12.30597 | 22587 ft | 343 kts | 163° |
| 2026-05-06 12:11 | 39.10483 | 12.31806 | 22092 ft | 343 kts | 163° |
| 2026-05-06 12:11 | 39.08293 | 12.33011 | 21604 ft | 342 kts | 163° |
| 2026-05-06 12:11 | 39.06113 | 12.34211 | 21183 ft | 339 kts | 163° |
| 2026-05-06 12:11 | 39.03955 | 12.35400 | 20784 ft | 336 kts | 163° |
| 2026-05-06 12:12 | 39.02533 | 12.36184 | 20521 ft | 334 kts | 162° |
| 2026-05-06 12:12 | 39.00377 | 12.37374 | 20123 ft | 331 kts | 162° |
| 2026-05-06 12:12 | 38.98294 | 12.38520 | 19745 ft | 329 kts | 162° |
| 2026-05-06 12:12 | 38.96168 | 12.39687 | 19367 ft | 327 kts | 162° |
| 2026-05-06 12:13 | 38.94114 | 12.40814 | 18974 ft | 325 kts | 162° |
| 2026-05-06 12:13 | 38.92044 | 12.41949 | 18595 ft | 323 kts | 162° |
| 2026-05-06 12:13 | 38.89984 | 12.43076 | 18214 ft | 321 kts | 161° |
| 2026-05-06 12:13 | 38.87933 | 12.44201 | 17786 ft | 320 kts | 161° |
| 2026-05-06 12:14 | 38.85892 | 12.45328 | 17376 ft | 319 kts | 160° |
| 2026-05-06 12:14 | 38.83848 | 12.46527 | 16953 ft | 319 kts | 159° |
| 2026-05-06 12:14 | 38.81848 | 12.47743 | 16542 ft | 318 kts | 159° |
| 2026-05-06 12:14 | 38.79856 | 12.48964 | 16138 ft | 317 kts | 159° |
| 2026-05-06 12:15 | 38.77892 | 12.50163 | 15740 ft | 316 kts | 159° |
| 2026-05-06 12:15 | 38.75908 | 12.51368 | 15353 ft | 315 kts | 159° |
| 2026-05-06 12:15 | 38.73902 | 12.52581 | 14960 ft | 315 kts | 159° |
| 2026-05-06 12:15 | 38.71945 | 12.53759 | 14579 ft | 314 kts | 159° |
| 2026-05-06 12:16 | 38.69968 | 12.54945 | 14203 ft | 313 kts | 159° |
| 2026-05-06 12:16 | 38.68000 | 12.56124 | 13821 ft | 309 kts | 158° |
| 2026-05-06 12:16 | 38.66097 | 12.57267 | 13392 ft | 296 kts | 159° |
| 2026-05-06 12:16 | 38.64264 | 12.58367 | 12969 ft | 286 kts | 159° |
| 2026-05-06 12:17 | 38.62497 | 12.59425 | 12564 ft | 276 kts | 158° |
| 2026-05-06 12:17 | 38.60782 | 12.60453 | 12150 ft | 268 kts | 158° |
| 2026-05-06 12:17 | 38.59122 | 12.61450 | 11822 ft | 257 kts | 158° |
| 2026-05-06 12:17 | 38.57554 | 12.62392 | 11653 ft | 242 kts | 158° |
| 2026-05-06 12:18 | 38.56064 | 12.63284 | 11474 ft | 233 kts | 158° |
| 2026-05-06 12:18 | 38.54603 | 12.64154 | 11310 ft | 231 kts | 158° |
| 2026-05-06 12:18 | 38.53147 | 12.65017 | 11139 ft | 230 kts | 158° |
| 2026-05-06 12:18 | 38.51697 | 12.65876 | 10969 ft | 230 kts | 158° |
| 2026-05-06 12:19 | 38.50249 | 12.66738 | 10798 ft | 229 kts | 158° |
| 2026-05-06 12:19 | 38.48808 | 12.67599 | 10635 ft | 229 kts | 157° |
| 2026-05-06 12:19 | 38.47368 | 12.68460 | 10463 ft | 228 kts | 157° |
| 2026-05-06 12:19 | 38.45925 | 12.69321 | 10305 ft | 228 kts | 157° |
| 2026-05-06 12:20 | 38.44492 | 12.70173 | 10140 ft | 227 kts | 157° |
| 2026-05-06 12:20 | 38.43060 | 12.71022 | 9975 ft | 227 kts | 157° |
| 2026-05-06 12:20 | 38.41627 | 12.71869 | 9801 ft | 227 kts | 157° |
| 2026-05-06 12:20 | 38.40196 | 12.72720 | 9621 ft | 227 kts | 157° |
| 2026-05-06 12:21 | 38.38772 | 12.73571 | 9432 ft | 226 kts | 157° |
| 2026-05-06 12:21 | 38.37352 | 12.74420 | 9257 ft | 225 kts | 157° |
| 2026-05-06 12:21 | 38.36036 | 12.75493 | 9076 ft | 227 kts | 137° |
| 2026-05-06 12:21 | 38.35161 | 12.77170 | 8879 ft | 231 kts | 113° |
| 2026-05-06 12:22 | 38.34912 | 12.79194 | 8707 ft | 235 kts | 88° |
| 2026-05-06 12:22 | 38.35364 | 12.81199 | 8531 ft | 238 kts | 69° |
| 2026-05-06 12:22 | 38.36026 | 12.83135 | 8354 ft | 238 kts | 69° |
| 2026-05-06 12:22 | 38.36684 | 12.85065 | 8182 ft | 237 kts | 69° |
| 2026-05-06 12:23 | 38.37340 | 12.86988 | 8008 ft | 237 kts | 69° |
| 2026-05-06 12:23 | 38.37995 | 12.88917 | 7836 ft | 236 kts | 69° |
| 2026-05-06 12:23 | 38.38643 | 12.90836 | 7656 ft | 235 kts | 69° |
| 2026-05-06 12:23 | 38.39277 | 12.92755 | 7491 ft | 234 kts | 74° |
| 2026-05-06 12:24 | 38.39413 | 12.94763 | 7308 ft | 226 kts | 104° |
| 2026-05-06 12:24 | 38.38782 | 12.96536 | 7149 ft | 219 kts | 133° |
| 2026-05-06 12:24 | 38.37591 | 12.97673 | 6983 ft | 214 kts | 157° |
| 2026-05-06 12:24 | 38.36239 | 12.98460 | 6820 ft | 214 kts | 157° |
| 2026-05-06 12:25 | 38.34890 | 12.99249 | 6648 ft | 213 kts | 157° |
| 2026-05-06 12:25 | 38.33535 | 13.00023 | 6488 ft | 212 kts | 162° |
| 2026-05-06 12:25 | 38.32095 | 13.00165 | 6311 ft | 209 kts | 193° |
| 2026-05-06 12:25 | 38.30828 | 12.99303 | 6136 ft | 210 kts | 224° |
| 2026-05-06 12:26 | 38.30067 | 12.97713 | 5966 ft | 214 kts | 244° |
| 2026-05-06 12:26 | 38.29484 | 12.95972 | 5791 ft | 214 kts | 244° |
| 2026-05-06 12:26 | 38.28900 | 12.94238 | 5610 ft | 213 kts | 243° |
| 2026-05-06 12:26 | 38.28314 | 12.92503 | 5441 ft | 213 kts | 243° |
| 2026-05-06 12:27 | 38.27730 | 12.90775 | 5247 ft | 212 kts | 243° |
| 2026-05-06 12:27 | 38.27150 | 12.89054 | 4988 ft | 211 kts | 243° |
| 2026-05-06 12:27 | 38.26571 | 12.87336 | 4741 ft | 211 kts | 243° |
| 2026-05-06 12:27 | 38.25994 | 12.85622 | 4475 ft | 210 kts | 243° |
| 2026-05-06 12:28 | 38.25310 | 12.84005 | 4214 ft | 205 kts | 224° |
| 2026-05-06 12:28 | 38.24157 | 12.83049 | 4033 ft | 195 kts | 194° |
| 2026-05-06 12:28 | 38.22847 | 12.82972 | 3906 ft | 187 kts | 167° |
| 2026-05-06 12:28 | 38.21653 | 12.83558 | 3781 ft | 181 kts | 158° |
| 2026-05-06 12:29 | 38.20510 | 12.84179 | 3655 ft | 176 kts | 158° |
| 2026-05-06 12:29 | 38.19393 | 12.84782 | 3513 ft | 173 kts | 158° |
| 2026-05-06 12:29 | 38.18291 | 12.85375 | 3333 ft | 172 kts | 158° |
| 2026-05-06 12:29 | 38.17193 | 12.85966 | 3163 ft | 171 kts | 158° |
| 2026-05-06 12:30 | 38.16102 | 12.86556 | 2993 ft | 170 kts | 158° |
| 2026-05-06 12:30 | 38.15021 | 12.87144 | 2822 ft | 169 kts | 158° |
| 2026-05-06 12:30 | 38.13952 | 12.87723 | 2671 ft | 164 kts | 158° |
| 2026-05-06 12:30 | 38.12927 | 12.88278 | 2499 ft | 157 kts | 158° |
| 2026-05-06 12:31 | 38.11994 | 12.88935 | 2329 ft | 152 kts | 139° |
| 2026-05-06 12:31 | 38.11489 | 12.90097 | 2148 ft | 154 kts | 107° |
| 2026-05-06 12:31 | 38.11615 | 12.91444 | 1995 ft | 157 kts | 75° |
| 2026-05-06 12:31 | 38.12044 | 12.92706 | 1820 ft | 154 kts | 73° |
| 2026-05-06 12:32 | 38.12466 | 12.93945 | 1648 ft | 153 kts | 72° |
| 2026-05-06 12:32 | 38.12880 | 12.95165 | 1465 ft | 152 kts | 70° |
| 2026-05-06 12:32 | 38.13293 | 12.96387 | 1304 ft | 149 kts | 67° |
| 2026-05-06 12:32 | 38.13698 | 12.97585 | 1125 ft | 147 kts | 65° |
| 2026-05-06 12:33 | 38.14102 | 12.98783 | 954 ft | 144 kts | 64° |
| 2026-05-06 12:33 | 38.14494 | 12.99950 | 844 ft | 143 kts | 64° |
| 2026-05-06 12:33 | 38.14882 | 13.01103 | 814 ft | 142 kts | 64° |
| 2026-05-06 12:33 | 38.15270 | 13.02254 | 813 ft | 140 kts | 65° |
| 2026-05-06 12:34 | 38.15654 | 13.03389 | 806 ft | 141 kts | 64° |
| 2026-05-06 12:34 | 38.16041 | 13.04545 | 780 ft | 144 kts | 66° |
| 2026-05-06 12:34 | 38.16437 | 13.05744 | 652 ft | 151 kts | 65° |
| 2026-05-06 12:34 | 38.16879 | 13.06963 | 527 ft | 155 kts | 63° |